createdAt,value
2018-07-13T00:00:35.122Z,18.24
2018-07-13T00:03:03.142Z,18.14
2018-07-13T00:05:31.173Z,18.09
2018-07-13T00:07:59.202Z,18.05
2018-07-13T00:10:27.229Z,18.04
2018-07-13T00:12:55.248Z,18.04
2018-07-13T00:15:23.282Z,18.00
2018-07-13T00:17:51.305Z,18.01
2018-07-13T00:20:19.333Z,17.96
2018-07-13T00:22:47.360Z,17.97
2018-07-13T00:25:15.392Z,17.98
2018-07-13T00:27:43.426Z,17.97
2018-07-13T00:30:11.450Z,17.98
2018-07-13T00:32:39.737Z,17.96
2018-07-13T00:35:07.760Z,17.92
2018-07-13T00:37:35.792Z,17.94
2018-07-13T00:40:04.460Z,17.94
2018-07-13T00:42:32.515Z,17.96
2018-07-13T00:45:00.548Z,17.94
2018-07-13T00:47:28.976Z,17.89
2018-07-13T00:49:57.009Z,17.80
2018-07-13T00:52:25.059Z,17.75
2018-07-13T00:54:53.089Z,17.72
2018-07-13T00:57:21.118Z,17.73
2018-07-13T00:59:49.146Z,17.68
2018-07-13T01:02:17.165Z,17.66
2018-07-13T01:04:45.202Z,17.65
2018-07-13T01:07:13.252Z,17.63
2018-07-13T01:09:41.288Z,17.59
2018-07-13T01:12:09.327Z,17.57
2018-07-13T01:14:37.349Z,17.57
2018-07-13T01:17:05.392Z,17.60
2018-07-13T01:19:33.459Z,17.54
2018-07-13T01:22:01.594Z,17.54
2018-07-13T01:24:29.620Z,17.50
2018-07-13T01:26:57.648Z,17.50
2018-07-13T01:29:25.676Z,17.47
2018-07-13T01:31:53.762Z,17.48
2018-07-13T01:34:21.780Z,17.45
2018-07-13T01:36:50.074Z,17.43
2018-07-13T01:39:18.073Z,17.38
2018-07-13T01:41:46.101Z,17.38
2018-07-13T01:44:14.153Z,17.31
2018-07-13T01:46:42.200Z,17.30
2018-07-13T01:49:10.236Z,17.30
2018-07-13T01:51:38.267Z,17.29
2018-07-13T01:54:06.337Z,17.29
2018-07-13T01:56:34.584Z,17.29
2018-07-13T01:59:03.084Z,17.27
2018-07-13T02:01:31.340Z,17.26
2018-07-13T02:03:59.612Z,17.21
2018-07-13T02:06:27.633Z,17.19
2018-07-13T02:08:56.361Z,17.14
2018-07-13T02:11:24.400Z,17.12
2018-07-13T02:13:52.459Z,17.07
2018-07-13T02:16:20.493Z,17.03
2018-07-13T02:18:48.644Z,17.01
2018-07-13T02:21:16.672Z,16.98
2018-07-13T02:23:44.755Z,16.96
2018-07-13T02:26:12.974Z,16.96
2018-07-13T02:28:41.021Z,16.95
2018-07-13T02:31:09.055Z,16.92
2018-07-13T02:33:37.081Z,16.91
2018-07-13T02:36:05.154Z,16.89
2018-07-13T02:38:33.197Z,16.82
2018-07-13T02:41:01.219Z,16.80
2018-07-13T02:43:29.254Z,16.78
2018-07-13T02:45:57.281Z,16.79
2018-07-13T02:48:25.428Z,16.76
2018-07-13T02:50:53.548Z,16.68
2018-07-13T02:53:21.586Z,16.61
2018-07-13T02:55:49.637Z,16.53
2018-07-13T02:58:17.689Z,16.53
2018-07-13T03:00:45.974Z,16.56
2018-07-13T03:03:14.045Z,16.57
2018-07-13T03:05:42.114Z,16.54
2018-07-13T03:08:10.370Z,16.54
2018-07-13T03:10:38.402Z,16.54
2018-07-13T03:13:06.449Z,16.50
2018-07-13T03:15:34.479Z,16.52
2018-07-13T03:18:02.513Z,16.49
2018-07-13T03:20:30.844Z,16.49
2018-07-13T03:22:58.908Z,16.55
2018-07-13T03:25:26.976Z,16.50
2018-07-13T03:27:55.049Z,16.51
2018-07-13T03:30:23.440Z,16.48
2018-07-13T03:32:51.518Z,16.49
2018-07-13T03:35:20.206Z,16.48
2018-07-13T03:37:48.242Z,16.42
2018-07-13T03:40:16.304Z,16.41
2018-07-13T03:42:44.597Z,16.35
2018-07-13T03:45:12.773Z,16.37
2018-07-13T03:47:40.850Z,16.39
2018-07-13T03:50:08.933Z,16.40
2018-07-13T03:52:36.969Z,16.41
2018-07-13T03:55:05.080Z,16.37
2018-07-13T03:57:33.104Z,16.35
2018-07-13T04:00:01.141Z,16.31
2018-07-13T04:02:29.492Z,16.31
2018-07-13T04:04:57.520Z,16.28
2018-07-13T04:07:25.738Z,16.30
2018-07-13T04:09:53.764Z,16.28
2018-07-13T04:12:21.958Z,16.28
2018-07-13T04:14:50.143Z,16.25
2018-07-13T04:17:18.165Z,16.21
2018-07-13T04:19:46.189Z,16.17
2018-07-13T04:22:14.238Z,16.09
2018-07-13T04:24:42.268Z,16.12
2018-07-13T04:27:10.351Z,16.17
2018-07-13T04:29:38.989Z,16.11
2018-07-13T04:32:07.019Z,16.16
2018-07-13T04:34:35.138Z,16.17
2018-07-13T04:37:03.175Z,16.19
2018-07-13T04:39:31.591Z,16.21
2018-07-13T04:41:59.625Z,16.20
2018-07-13T04:44:27.648Z,16.18
2018-07-13T04:46:55.893Z,16.22
2018-07-13T04:49:23.916Z,16.23
2018-07-13T04:51:51.971Z,16.27
2018-07-13T04:54:20.008Z,16.30
2018-07-13T04:56:48.117Z,16.30
2018-07-13T04:59:16.141Z,16.29
2018-07-13T05:01:44.434Z,16.45
2018-07-13T05:04:12.424Z,16.48
2018-07-13T05:06:40.448Z,16.51
2018-07-13T05:09:09.136Z,16.55
2018-07-13T05:11:37.348Z,16.58
2018-07-13T05:14:05.381Z,16.60
2018-07-13T05:16:33.402Z,16.69
2018-07-13T05:19:01.434Z,16.76
2018-07-13T05:21:29.620Z,16.85
2018-07-13T05:23:57.780Z,16.87
2018-07-13T05:26:25.857Z,16.93
2018-07-13T05:28:53.897Z,16.97
2018-07-13T05:31:22.167Z,17.04
2018-07-13T05:33:50.185Z,17.08
2018-07-13T05:36:18.213Z,17.13
2018-07-13T05:38:46.258Z,17.22
2018-07-13T05:41:14.460Z,17.27
2018-07-13T05:43:42.656Z,17.35
2018-07-13T05:46:10.689Z,17.35
2018-07-13T05:48:39.508Z,17.41
2018-07-13T05:51:07.533Z,17.47
2018-07-13T05:53:35.948Z,17.54
2018-07-13T05:56:04.836Z,17.58
2018-07-13T05:58:32.937Z,17.62
2018-07-13T06:01:01.297Z,17.60
2018-07-13T06:03:29.699Z,17.63
2018-07-13T06:05:57.736Z,17.60
2018-07-13T06:08:25.825Z,17.68
2018-07-13T06:10:53.885Z,17.81
2018-07-13T06:13:21.981Z,17.87
2018-07-13T06:15:50.022Z,17.93
2018-07-13T06:18:18.085Z,17.89
2018-07-13T06:20:46.127Z,17.91
2018-07-13T06:23:14.241Z,18.04
2018-07-13T06:25:42.522Z,18.08
2018-07-13T06:28:10.573Z,18.11
2018-07-13T06:30:38.800Z,18.16
2018-07-13T06:33:07.346Z,18.14
2018-07-13T06:35:35.541Z,18.20
2018-07-13T06:38:03.565Z,18.19
2018-07-13T06:40:31.610Z,18.21
2018-07-13T06:42:59.640Z,18.31
2018-07-13T06:45:27.680Z,18.39
2018-07-13T06:47:55.740Z,18.40
2018-07-13T06:50:23.834Z,18.43
2018-07-13T06:52:51.808Z,18.44
2018-07-13T06:55:19.838Z,18.35
2018-07-13T06:57:59.388Z,18.29
2018-07-13T07:01:00.461Z,18.22
2018-07-13T07:03:29.564Z,18.24
2018-07-13T07:06:13.460Z,18.22
2018-07-13T07:08:44.969Z,18.27
2018-07-13T07:11:13.017Z,18.26
2018-07-13T07:13:42.932Z,18.37
2018-07-13T07:16:11.068Z,18.43
2018-07-13T07:18:39.129Z,18.39
2018-07-13T07:21:07.649Z,18.38
2018-07-13T07:23:36.035Z,18.43
2018-07-13T07:26:05.433Z,18.58
2018-07-13T07:28:33.524Z,18.81
2018-07-13T07:31:02.229Z,18.98
2018-07-13T07:33:30.266Z,19.17
2018-07-13T07:35:58.313Z,19.27
2018-07-13T07:38:26.444Z,19.34
2018-07-13T07:40:54.429Z,19.39
2018-07-13T07:43:22.460Z,19.34
2018-07-13T07:45:50.544Z,19.39
2018-07-13T07:48:18.565Z,19.52
2018-07-13T07:50:46.597Z,19.71
2018-07-13T07:53:14.639Z,19.98
2018-07-13T07:55:42.690Z,20.33
2018-07-13T07:58:10.897Z,20.69
2018-07-13T08:00:38.936Z,20.87
2018-07-13T08:03:06.985Z,20.81
2018-07-13T08:05:35.202Z,20.88
2018-07-13T08:08:03.249Z,20.99
2018-07-13T08:10:31.288Z,21.28
2018-07-13T08:12:59.330Z,21.51
2018-07-13T08:15:27.375Z,21.82
2018-07-13T08:17:55.429Z,22.01
2018-07-13T08:20:28.904Z,22.24
2018-07-13T08:22:57.931Z,22.49
2018-07-13T08:25:27.027Z,22.57
2018-07-13T08:27:59.208Z,22.78
2018-07-13T08:30:33.097Z,22.87
2018-07-13T08:33:01.127Z,22.95
2018-07-13T08:35:29.153Z,23.05
2018-07-13T08:37:57.640Z,23.28
2018-07-13T08:40:25.708Z,23.50
2018-07-13T08:42:53.970Z,23.67
2018-07-13T08:45:21.992Z,24.00
2018-07-13T08:47:50.035Z,24.32
2018-07-13T08:50:19.101Z,24.45
2018-07-13T08:52:47.150Z,24.67
2018-07-13T08:55:16.221Z,24.84
2018-07-13T08:57:45.893Z,25.00
2018-07-13T09:00:13.933Z,25.13
2018-07-13T09:02:41.958Z,25.14
2018-07-13T09:05:10.110Z,25.29
2018-07-13T09:07:38.780Z,25.36
2018-07-13T09:10:09.876Z,25.60
2018-07-13T09:12:38.403Z,25.64
2018-07-13T09:15:07.209Z,25.64
2018-07-13T09:17:35.226Z,25.88
2018-07-13T09:20:03.257Z,25.94
2018-07-13T09:22:31.398Z,25.94
2018-07-13T09:24:59.444Z,25.89
2018-07-13T09:27:27.563Z,25.88
2018-07-13T09:29:55.596Z,26.08
2018-07-13T09:32:23.614Z,26.39
2018-07-13T09:34:51.661Z,26.84
2018-07-13T09:37:20.134Z,26.84
2018-07-13T09:39:48.165Z,26.77
2018-07-13T09:42:16.183Z,26.84
2018-07-13T09:44:44.477Z,26.97
2018-07-13T09:47:12.549Z,27.25
2018-07-13T09:49:40.560Z,27.33
2018-07-13T09:52:08.880Z,27.46
2018-07-13T09:54:36.908Z,27.50
2018-07-13T09:57:05.553Z,27.64
2018-07-13T09:59:33.702Z,27.80
2018-07-13T10:02:01.721Z,27.90
2018-07-13T10:04:29.751Z,28.06
2018-07-13T10:06:57.772Z,28.20
2018-07-13T10:09:25.814Z,28.06
2018-07-13T10:11:53.860Z,28.05
2018-07-13T10:14:21.889Z,28.04
2018-07-13T10:16:49.928Z,28.24
2018-07-13T10:19:17.981Z,28.45
2018-07-13T10:21:47.374Z,28.27
2018-07-13T10:24:17.788Z,27.98
2018-07-13T10:26:46.012Z,28.12
2018-07-13T10:29:18.355Z,28.45
2018-07-13T10:31:46.379Z,28.49
2018-07-13T10:34:15.152Z,28.39
2018-07-13T10:36:46.988Z,28.15
2018-07-13T10:39:15.022Z,28.32
2018-07-13T10:41:43.178Z,28.47
2018-07-13T10:44:11.222Z,28.60
2018-07-13T10:46:39.254Z,28.42
2018-07-13T10:49:07.416Z,28.47
2018-07-13T10:51:35.698Z,28.82
2018-07-13T10:54:04.599Z,28.83
2018-07-13T10:56:32.629Z,28.49
2018-07-13T10:59:01.048Z,28.40
2018-07-13T11:01:29.074Z,28.31
2018-07-13T11:03:57.124Z,28.40
2018-07-13T11:06:25.176Z,28.51
2018-07-13T11:08:53.218Z,28.41
2018-07-13T11:11:21.405Z,28.42
2018-07-13T11:13:50.101Z,28.43
2018-07-13T11:16:18.081Z,28.56
2018-07-13T11:18:46.105Z,28.74
2018-07-13T11:21:14.140Z,28.95
2018-07-13T11:23:42.259Z,29.14
2018-07-13T11:26:10.278Z,29.15
2018-07-13T11:28:39.309Z,29.18
2018-07-13T11:31:07.344Z,29.21
2018-07-13T11:33:35.573Z,29.35
2018-07-13T11:36:03.740Z,29.49
2018-07-13T11:38:32.025Z,29.37
2018-07-13T11:41:06.868Z,29.35
2018-07-13T11:43:34.909Z,29.40
2018-07-13T11:46:03.080Z,29.33
2018-07-13T11:48:31.405Z,29.40
2018-07-13T11:50:59.445Z,29.61
2018-07-13T11:53:27.480Z,29.51
2018-07-13T11:55:55.525Z,29.42
2018-07-13T11:58:23.565Z,29.33
2018-07-13T12:00:51.595Z,29.46
2018-07-13T12:03:19.620Z,29.78
2018-07-13T12:05:47.649Z,29.96
2018-07-13T12:08:15.711Z,29.99
2018-07-13T12:10:44.117Z,30.08
2018-07-13T12:13:12.133Z,29.81
2018-07-13T12:15:40.170Z,29.76
2018-07-13T12:18:08.233Z,29.80
2018-07-13T12:20:36.275Z,29.94
2018-07-13T12:23:04.973Z,30.13
2018-07-13T12:25:33.057Z,30.07
2018-07-13T12:28:01.085Z,30.20
2018-07-13T12:30:29.297Z,30.10
2018-07-13T12:32:57.333Z,29.94
2018-07-13T12:35:25.370Z,29.85
2018-07-13T12:37:53.468Z,30.00
2018-07-13T12:40:21.440Z,30.23
2018-07-13T12:42:49.473Z,30.46
2018-07-13T12:45:17.509Z,30.57
2018-07-13T12:47:45.545Z,30.76
2018-07-13T12:50:13.585Z,30.91
2018-07-13T12:52:41.667Z,30.82
2018-07-13T12:55:09.704Z,30.73
2018-07-13T12:57:37.740Z,30.64
2018-07-13T13:00:05.779Z,30.68
2018-07-13T13:02:33.820Z,30.72
2018-07-13T13:05:01.862Z,30.59
2018-07-13T13:07:30.137Z,30.61
2018-07-13T13:09:58.299Z,30.54
2018-07-13T13:12:26.339Z,30.38
2018-07-13T13:14:54.365Z,30.42
2018-07-13T13:17:22.393Z,30.39
2018-07-13T13:19:50.422Z,30.45
2018-07-13T13:22:18.451Z,30.63
2018-07-13T13:24:46.496Z,30.93
2018-07-13T13:27:14.533Z,30.97
2018-07-13T13:29:42.557Z,30.99
2018-07-13T13:32:10.589Z,31.01
2018-07-13T13:34:38.623Z,31.04
2018-07-13T13:37:06.657Z,31.00
2018-07-13T13:39:34.684Z,31.05
2018-07-13T13:42:02.716Z,31.05
2018-07-13T13:44:30.897Z,31.14
2018-07-13T13:46:58.912Z,31.35
2018-07-13T13:49:26.964Z,31.36
2018-07-13T13:51:54.992Z,31.15
2018-07-13T13:54:23.032Z,31.20
2018-07-13T13:56:51.089Z,30.97
2018-07-13T13:59:19.104Z,30.85
2018-07-13T14:01:47.149Z,30.77
2018-07-13T14:04:19.347Z,30.82
2018-07-13T14:06:47.553Z,30.63
2018-07-13T14:09:15.625Z,30.61
2018-07-13T14:11:43.584Z,30.41
2018-07-13T14:14:12.064Z,30.08
2018-07-13T14:16:40.432Z,30.00
2018-07-13T14:19:08.500Z,30.07
2018-07-13T14:21:36.519Z,30.18
2018-07-13T14:24:04.774Z,29.91
2018-07-13T14:26:33.330Z,29.95
2018-07-13T14:29:02.170Z,29.88
2018-07-13T14:31:31.003Z,29.98
2018-07-13T14:33:59.025Z,30.02
2018-07-13T14:36:27.148Z,29.82
2018-07-13T14:38:55.172Z,29.60
2018-07-13T14:41:23.202Z,29.61
2018-07-13T14:43:51.235Z,29.55
2018-07-13T14:46:19.248Z,29.59
2018-07-13T14:48:47.276Z,29.76
2018-07-13T14:51:15.574Z,29.93
2018-07-13T14:53:44.332Z,30.14
2018-07-13T14:56:12.817Z,30.16
2018-07-13T14:58:41.329Z,30.22
2018-07-13T15:01:10.630Z,30.31
2018-07-13T15:03:39.131Z,30.41
2018-07-13T15:06:07.256Z,30.28
2018-07-13T15:08:35.470Z,30.02
2018-07-13T15:11:03.490Z,29.87
2018-07-13T15:13:31.521Z,29.83
2018-07-13T15:15:59.534Z,29.87
2018-07-13T15:18:27.554Z,29.94
2018-07-13T15:20:55.576Z,30.02
2018-07-13T15:23:23.893Z,29.94
2018-07-13T15:26:04.092Z,30.04
2018-07-13T15:28:32.122Z,30.11
2018-07-13T15:31:01.316Z,30.08
2018-07-13T15:33:29.338Z,29.94
2018-07-13T15:35:57.356Z,29.94
2018-07-13T15:38:25.368Z,30.04
2018-07-13T15:40:53.399Z,30.22
2018-07-13T15:43:21.449Z,30.36
2018-07-13T15:45:49.747Z,30.49
2018-07-13T15:48:17.768Z,30.44
2018-07-13T15:50:45.884Z,30.39
2018-07-13T15:53:13.976Z,30.40
2018-07-13T15:55:47.333Z,30.35
2018-07-13T15:58:15.346Z,30.31
2018-07-13T16:00:43.364Z,30.28
2018-07-13T16:03:11.602Z,30.21
2018-07-13T16:05:39.933Z,30.24
2018-07-13T16:08:08.215Z,30.14
2018-07-13T16:10:36.789Z,30.13
2018-07-13T16:13:04.897Z,29.97
2018-07-13T16:15:33.429Z,29.62
2018-07-13T16:18:01.474Z,29.54
2018-07-13T16:20:29.488Z,29.57
2018-07-13T16:22:57.568Z,29.55
2018-07-13T16:25:25.867Z,29.32
2018-07-13T16:27:55.264Z,29.27
2018-07-13T16:30:24.540Z,29.24
2018-07-13T16:32:52.564Z,29.26
2018-07-13T16:35:20.680Z,29.34
2018-07-13T16:37:48.685Z,29.40
2018-07-13T16:40:16.828Z,29.32
2018-07-13T16:42:44.859Z,29.38
2018-07-13T16:45:13.016Z,29.38
2018-07-13T16:47:41.008Z,29.30
2018-07-13T16:50:09.017Z,29.24
2018-07-13T16:52:37.500Z,29.22
2018-07-13T16:55:05.677Z,29.20
2018-07-13T16:57:34.251Z,29.06
2018-07-13T17:00:02.276Z,28.95
2018-07-13T17:02:30.557Z,28.87
2018-07-13T17:04:58.766Z,28.77
2018-07-13T17:07:26.841Z,28.65
2018-07-13T17:09:54.901Z,28.42
2018-07-13T17:12:23.621Z,28.38
2018-07-13T17:14:51.663Z,28.36
2018-07-13T17:17:20.505Z,28.41
2018-07-13T17:19:48.645Z,28.42
2018-07-13T17:22:16.660Z,28.43
2018-07-13T17:24:44.716Z,28.35
2018-07-13T17:27:12.962Z,28.02
2018-07-13T17:29:40.976Z,27.91
2018-07-13T17:32:09.544Z,27.84
2018-07-13T17:34:37.566Z,27.82
2018-07-13T17:37:05.590Z,27.85
2018-07-13T17:39:33.932Z,27.78
2018-07-13T17:42:01.981Z,27.77
2018-07-13T17:44:30.981Z,27.74
2018-07-13T17:46:59.003Z,27.62
2018-07-13T17:49:45.729Z,27.50
2018-07-13T17:52:13.757Z,27.32
2018-07-13T17:54:43.234Z,27.25
2018-07-13T17:57:11.607Z,27.08
2018-07-13T17:59:39.645Z,26.89
2018-07-13T18:02:07.658Z,26.79
2018-07-13T18:04:35.820Z,26.71
2018-07-13T18:07:04.875Z,26.68
2018-07-13T18:09:36.116Z,26.60
2018-07-13T18:12:07.460Z,26.49
2018-07-13T18:14:35.800Z,26.44
2018-07-13T18:17:04.809Z,26.41
2018-07-13T18:19:32.844Z,26.44
2018-07-13T18:22:00.867Z,26.43
2018-07-13T18:24:28.894Z,26.45
2018-07-13T18:26:57.080Z,26.42
2018-07-13T18:29:25.764Z,26.38
2018-07-13T18:31:55.057Z,26.23
2018-07-13T18:34:23.071Z,26.08
2018-07-13T18:36:51.152Z,25.98
2018-07-13T18:39:19.886Z,25.81
2018-07-13T18:41:49.501Z,25.69
2018-07-13T18:44:17.567Z,25.68
2018-07-13T18:46:45.606Z,25.66
2018-07-13T18:49:13.662Z,25.57
2018-07-13T18:51:48.333Z,25.49
2018-07-13T18:54:16.622Z,25.38
2018-07-13T18:56:44.725Z,25.20
2018-07-13T18:59:13.080Z,25.11
2018-07-13T19:01:41.115Z,25.03
2018-07-13T19:04:09.144Z,24.93
2018-07-13T19:06:37.621Z,24.78
2018-07-13T19:09:06.866Z,24.75
2018-07-13T19:11:34.902Z,24.65
2018-07-13T19:14:03.498Z,24.52
2018-07-13T19:16:31.557Z,24.41
2018-07-13T19:18:59.810Z,24.29
2018-07-13T19:21:27.873Z,24.21
2018-07-13T19:23:55.922Z,24.19
2018-07-13T19:26:25.041Z,24.20
2018-07-13T19:28:53.082Z,24.17
2018-07-13T19:31:23.213Z,24.12
2018-07-13T19:33:51.275Z,23.94
2018-07-13T19:36:19.402Z,23.76
2018-07-13T19:38:47.397Z,23.71
2018-07-13T19:41:15.421Z,23.65
2018-07-13T19:43:43.621Z,23.64
2018-07-13T19:46:11.662Z,23.59
2018-07-13T19:48:39.690Z,23.48
2018-07-13T19:51:10.082Z,23.35
2018-07-13T19:53:38.156Z,23.31
2018-07-13T19:56:06.308Z,23.23
2018-07-13T19:58:34.486Z,23.16
2018-07-13T20:01:02.823Z,23.06
2018-07-13T20:03:31.572Z,22.94
2018-07-13T20:05:59.570Z,22.84
2018-07-13T20:08:27.593Z,22.76
2018-07-13T20:10:55.635Z,22.69
2018-07-13T20:13:23.801Z,22.65
2018-07-13T20:15:51.825Z,22.59
2018-07-13T20:18:19.888Z,22.51
2018-07-13T20:20:47.923Z,22.47
2018-07-13T20:23:15.999Z,22.41
2018-07-13T20:25:44.055Z,22.37
2018-07-13T20:28:12.537Z,22.26
2018-07-13T20:30:40.609Z,22.12
2018-07-13T20:33:08.658Z,22.00
2018-07-13T20:35:36.681Z,21.94
2018-07-13T20:38:04.941Z,21.92
2018-07-13T20:40:32.973Z,21.86
2018-07-13T20:43:01.277Z,21.84
2018-07-13T20:45:29.509Z,21.71
2018-07-13T20:47:57.591Z,21.61
2018-07-13T20:50:25.588Z,21.45
2018-07-13T20:52:53.617Z,21.36
2018-07-13T20:55:21.958Z,21.40
2018-07-13T20:57:49.995Z,21.40
2018-07-13T21:00:18.401Z,21.44
2018-07-13T21:02:46.443Z,21.40
2018-07-13T21:05:14.536Z,21.37
2018-07-13T21:07:42.569Z,21.31
2018-07-13T21:10:10.745Z,21.22
2018-07-13T21:12:38.765Z,21.11
2018-07-13T21:15:06.810Z,21.12
2018-07-13T21:17:34.846Z,21.05
2018-07-13T21:20:04.382Z,20.97
2018-07-13T21:22:32.565Z,20.88
2018-07-13T21:25:00.600Z,20.86
2018-07-13T21:27:28.671Z,20.86
2018-07-13T21:29:56.693Z,20.80
2018-07-13T21:32:24.846Z,20.75
2018-07-13T21:34:52.892Z,20.77
2018-07-13T21:37:20.926Z,20.69
2018-07-13T21:39:48.967Z,20.68
2018-07-13T21:42:17.024Z,20.55
2018-07-13T21:44:45.064Z,20.49
2018-07-13T21:47:13.115Z,20.43
2018-07-13T21:49:41.144Z,20.39
2018-07-13T21:52:09.493Z,20.36
2018-07-13T21:54:37.457Z,20.30
2018-07-13T21:57:05.577Z,20.34
2018-07-13T21:59:33.949Z,20.38
2018-07-13T22:02:01.989Z,20.36
2018-07-13T22:04:30.086Z,20.30
2018-07-13T22:06:58.117Z,20.28
2018-07-13T22:09:26.153Z,20.21
2018-07-13T22:11:54.176Z,20.12
2018-07-13T22:14:22.201Z,20.00
2018-07-13T22:16:50.232Z,19.87
2018-07-13T22:19:18.255Z,19.80
2018-07-13T22:21:46.311Z,19.61
2018-07-13T22:24:14.343Z,19.60
2018-07-13T22:26:42.382Z,19.58
2018-07-13T22:29:10.410Z,19.57
2018-07-13T22:31:38.451Z,19.55
2018-07-13T22:34:06.608Z,19.46
2018-07-13T22:36:34.657Z,19.43
2018-07-13T22:39:02.725Z,19.35
2018-07-13T22:41:30.759Z,19.39
2018-07-13T22:43:58.806Z,19.42
2018-07-13T22:46:40.257Z,19.46
2018-07-13T22:49:08.297Z,19.48
2018-07-13T22:51:36.751Z,19.45
2018-07-13T22:54:04.985Z,19.44
2018-07-13T22:56:33.021Z,19.42
2018-07-13T22:59:01.057Z,19.42
2018-07-13T23:01:29.106Z,19.42
2018-07-13T23:03:57.116Z,19.43
2018-07-13T23:06:25.173Z,19.38
2018-07-13T23:08:53.198Z,19.35
2018-07-13T23:11:21.557Z,19.29
2018-07-13T23:13:49.601Z,19.28
2018-07-13T23:16:17.664Z,19.29
2018-07-13T23:18:45.704Z,19.22
2018-07-13T23:21:13.736Z,19.17
2018-07-13T23:23:41.787Z,19.13
2018-07-13T23:26:09.841Z,19.04
2018-07-13T23:28:37.866Z,19.00
2018-07-13T23:31:05.979Z,19.03
2018-07-13T23:33:34.021Z,19.04
2018-07-13T23:36:02.554Z,19.04
2018-07-13T23:38:30.577Z,18.99
2018-07-13T23:40:58.599Z,18.89
2018-07-13T23:43:26.629Z,18.84
2018-07-13T23:45:54.651Z,18.83
2018-07-13T23:48:22.700Z,18.83
2018-07-13T23:50:50.745Z,18.84
2018-07-13T23:53:19.060Z,18.86
2018-07-13T23:55:47.106Z,18.86
2018-07-13T23:58:15.133Z,18.86
